Riviere-A-Pierre, Canada
Current Conditions -  °F | °C
As of 12:00 PM on Saturday 25 Oct 2014 (Local Time) from CYOY Reporting Station
Clear Clear  
Wind Chill: 45°   Ceiling: Unl
Heat Index: 48°   Visibility: 9mi
Dew Point: 39°   Wind: 7mph
Humidity: 71%   Direction: 200°SSW
Pressure: 29.61"   Gusts: NA
Location:  46.98°N, 72.18°W
Report Text: CYOY 251600Z AUTO 20006KT 140V250 9SM CLR 09/04 A2961 RMKSLP033
Loading
Personal Weather Stations






























Interactive Weather Map
Tropical Storm Tracking
New forecast layout! Learn more

10-Day Weather Forecast

Advertisements
Track Severe Weather on mobile